Mol?tai Airport


Codes: EYMO/
Name: Mol?tai Airport
City: Mol?tai
Country: Lithuania
Elevation: 650 ft.

Photos at Mol?tai Airport


   Photos courtesy of SpottingLog. You can add your own sightings and photos by signing up for a free trial today.



No photos found.

Weather at Mol?tai Airport


Time (UTC)DescriptionTempratureWindCloud coverageVisibilityPressureHumidity
16-Jun-2024 12:00Few Clouds23°C4 mph, SE17%10000m1014hPa47%
16-Jun-2024 15:00Few Clouds24°C2 mph, SE24%10000m1013hPa48%
16-Jun-2024 18:00Light Rain18°C4 mph, SE63%10000m1012hPa85%
16-Jun-2024 21:00Few Clouds15°C4 mph, NE23%10000m1012hPa94%
17-Jun-2024 00:00Few Clouds14°C4 mph, E18%10000m1012hPa96%
17-Jun-2024 03:00Broken Clouds15°C2 mph, NE74%10000m1012hPa95%
17-Jun-2024 06:00Light Rain18°C2 mph, N87%10000m1012hPa89%
17-Jun-2024 09:00Moderate Rain21°C4 mph, NW95%10000m1011hPa77%
17-Jun-2024 12:00Light Rain23°C11 mph, NW80%10000m1011hPa66%
17-Jun-2024 15:00Light Rain21°C9 mph, NW89%10000m1011hPa75%
17-Jun-2024 18:00Light Rain19°C7 mph, NW59%10000m1012hPa85%
17-Jun-2024 21:00Clear Sky15°C7 mph, W0%10000m1013hPa96%
18-Jun-2024 00:00Clear Sky14°C4 mph, NW2%10000m1014hPa98%
18-Jun-2024 03:00Scattered Clouds13°C4 mph, W28%10000m1015hPa98%
18-Jun-2024 06:00Few Clouds18°C7 mph, W21%10000m1015hPa69%
18-Jun-2024 09:00Clear Sky22°C9 mph, W9%10000m1016hPa56%
18-Jun-2024 12:00Light Rain23°C9 mph, W22%10000m1015hPa57%
18-Jun-2024 15:00Light Rain23°C9 mph, W82%10000m1014hPa61%
18-Jun-2024 18:00Light Rain18°C4 mph, W91%10000m1014hPa92%
18-Jun-2024 21:00Light Rain15°C4 mph, SW100%10000m1014hPa96%
19-Jun-2024 00:00Overcast Clouds14°C4 mph, S92%10000m1013hPa97%
19-Jun-2024 03:00Overcast Clouds15°C4 mph, S100%10000m1011hPa97%
19-Jun-2024 06:00Light Rain19°C9 mph, S97%10000m1009hPa86%
19-Jun-2024 09:00Light Rain21°C13 mph, S100%10000m1005hPa82%
19-Jun-2024 12:00Heavy Intensity Rain16°C11 mph, S99%10000m1002hPa97%
19-Jun-2024 15:00Light Rain11°C18 mph, W100%10000m1006hPa95%
19-Jun-2024 18:00Overcast Clouds11°C11 mph, W100%10000m1009hPa90%
19-Jun-2024 21:00Light Rain10°C11 mph, W28%10000m1010hPa95%
20-Jun-2024 00:00Scattered Clouds9°C11 mph, W44%10000m1011hPa97%
20-Jun-2024 03:00Broken Clouds9°C11 mph, W65%10000m1012hPa96%
20-Jun-2024 06:00Broken Clouds14°C13 mph, W52%10000m1013hPa73%
20-Jun-2024 09:00Light Rain18°C16 mph, W46%10000m1013hPa66%
20-Jun-2024 12:00Light Rain17°C18 mph, W70%10000m1014hPa59%
20-Jun-2024 15:00Broken Clouds17°C16 mph, W73%10000m1014hPa70%
20-Jun-2024 18:00Broken Clouds15°C13 mph, W60%10000m1015hPa81%
20-Jun-2024 21:00Clear Sky12°C9 mph, W7%10000m1016hPa95%
21-Jun-2024 00:00Few Clouds12°C9 mph, SW24%10000m1016hPa95%
21-Jun-2024 03:00Broken Clouds11°C9 mph, SW68%10000m1017hPa93%
21-Jun-2024 06:00Broken Clouds17°C11 mph, W60%10000m1016hPa74%
21-Jun-2024 09:00Overcast Clouds20°C11 mph, W95%10000m1016hPa60%